Terminal Aerodrome Forecast
Issued by NWS Shreveport, LA

Home | Current Version | Previous Version | Text Only | Print | Product List | Glossary On
Versions: 1 2 3 4 5 6 7 8 9 10 11 12
000
FTUS44 KSHV 030537
TAFTYR
TAF
KTYR 030537Z 0306/0406 15003KT P6SM SKC
     FM031500 19005KT P6SM SCT250
     FM031800 15006KT P6SM SCT250=

USA.gov is the U.S. government's official web portal to all federal, state and local government web resources and services.